sensor_id;sensor_type;location;lat;lon;timestamp;P1;durP1;ratioP1;P2;durP2;ratioP2
20476;SDS011;10397;50.948;11.092;2022-08-21T00:01:26;9.67;;;8.87;;
20476;SDS011;10397;50.948;11.092;2022-08-21T00:03:56;9.30;;;8.50;;
20476;SDS011;10397;50.948;11.092;2022-08-21T00:06:27;8.90;;;8.20;;
20476;SDS011;10397;50.948;11.092;2022-08-21T00:08:58;8.83;;;7.83;;
20476;SDS011;10397;50.948;11.092;2022-08-21T00:11:29;9.33;;;8.47;;
20476;SDS011;10397;50.948;11.092;2022-08-21T00:13:59;9.23;;;8.37;;
20476;SDS011;10397;50.948;11.092;2022-08-21T00:16:30;9.93;;;9.13;;
20476;SDS011;10397;50.948;11.092;2022-08-21T00:19:01;9.03;;;8.33;;
20476;SDS011;10397;50.948;11.092;2022-08-21T00:21:32;9.73;;;8.83;;
20476;SDS011;10397;50.948;11.092;2022-08-21T00:24:02;8.73;;;7.97;;
20476;SDS011;10397;50.948;11.092;2022-08-21T00:26:33;8.73;;;8.03;;
20476;SDS011;10397;50.948;11.092;2022-08-21T00:29:03;9.30;;;8.60;;
20476;SDS011;10397;50.948;11.092;2022-08-21T00:31:35;8.57;;;7.73;;
20476;SDS011;10397;50.948;11.092;2022-08-21T00:34:05;9.73;;;9.03;;
20476;SDS011;10397;50.948;11.092;2022-08-21T00:36:36;8.67;;;8.07;;
20476;SDS011;10397;50.948;11.092;2022-08-21T00:39:06;9.50;;;8.80;;
20476;SDS011;10397;50.948;11.092;2022-08-21T00:41:37;8.53;;;7.83;;
20476;SDS011;10397;50.948;11.092;2022-08-21T00:44:08;8.10;;;7.50;;
20476;SDS011;10397;50.948;11.092;2022-08-21T00:46:38;8.40;;;7.70;;
20476;SDS011;10397;50.948;11.092;2022-08-21T00:49:08;8.47;;;7.77;;
20476;SDS011;10397;50.948;11.092;2022-08-21T00:51:44;9.23;;;8.40;;
20476;SDS011;10397;50.948;11.092;2022-08-21T00:54:12;9.77;;;9.03;;
20476;SDS011;10397;50.948;11.092;2022-08-21T00:56:43;10.03;;;9.23;;
20476;SDS011;10397;50.948;11.092;2022-08-21T00:59:14;10.23;;;9.30;;
20476;SDS011;10397;50.948;11.092;2022-08-21T01:01:44;10.27;;;9.47;;
20476;SDS011;10397;50.948;11.092;2022-08-21T01:04:15;9.27;;;8.63;;
20476;SDS011;10397;50.948;11.092;2022-08-21T01:06:45;9.60;;;8.90;;
20476;SDS011;10397;50.948;11.092;2022-08-21T01:09:16;10.60;;;9.70;;
20476;SDS011;10397;50.948;11.092;2022-08-21T01:11:46;10.80;;;9.90;;
20476;SDS011;10397;50.948;11.092;2022-08-21T01:14:17;12.40;;;11.27;;
20476;SDS011;10397;50.948;11.092;2022-08-21T01:16:48;12.13;;;11.03;;
20476;SDS011;10397;50.948;11.092;2022-08-21T01:19:19;11.87;;;11.07;;
20476;SDS011;10397;50.948;11.092;2022-08-21T01:21:49;11.23;;;10.43;;
20476;SDS011;10397;50.948;11.092;2022-08-21T01:24:19;11.13;;;10.27;;
20476;SDS011;10397;50.948;11.092;2022-08-21T01:26:49;10.37;;;9.47;;
20476;SDS011;10397;50.948;11.092;2022-08-21T01:29:25;10.57;;;9.33;;
20476;SDS011;10397;50.948;11.092;2022-08-21T01:32:07;10.53;;;9.67;;
20476;SDS011;10397;50.948;11.092;2022-08-21T01:34:37;9.77;;;8.97;;
20476;SDS011;10397;50.948;11.092;2022-08-21T01:37:06;10.20;;;9.40;;
20476;SDS011;10397;50.948;11.092;2022-08-21T01:39:37;9.37;;;8.67;;
20476;SDS011;10397;50.948;11.092;2022-08-21T01:42:08;9.93;;;9.13;;
20476;SDS011;10397;50.948;11.092;2022-08-21T01:44:38;9.83;;;8.97;;
20476;SDS011;10397;50.948;11.092;2022-08-21T01:47:11;10.47;;;9.43;;
20476;SDS011;10397;50.948;11.092;2022-08-21T01:49:40;9.40;;;8.63;;
20476;SDS011;10397;50.948;11.092;2022-08-21T01:52:10;9.27;;;8.40;;
20476;SDS011;10397;50.948;11.092;2022-08-21T01:54:41;10.00;;;9.20;;
20476;SDS011;10397;50.948;11.092;2022-08-21T01:57:12;8.33;;;7.70;;
20476;SDS011;10397;50.948;11.092;2022-08-21T01:59:42;9.17;;;8.47;;
20476;SDS011;10397;50.948;11.092;2022-08-21T02:02:13;9.60;;;8.90;;
20476;SDS011;10397;50.948;11.092;2022-08-21T02:04:44;9.57;;;8.87;;
20476;SDS011;10397;50.948;11.092;2022-08-21T02:07:15;9.50;;;8.80;;
20476;SDS011;10397;50.948;11.092;2022-08-21T02:09:46;9.23;;;8.53;;
20476;SDS011;10397;50.948;11.092;2022-08-21T02:12:17;8.40;;;7.70;;
20476;SDS011;10397;50.948;11.092;2022-08-21T02:14:48;9.30;;;8.60;;
20476;SDS011;10397;50.948;11.092;2022-08-21T02:17:18;9.80;;;8.93;;
20476;SDS011;10397;50.948;11.092;2022-08-21T02:19:49;8.97;;;8.10;;
20476;SDS011;10397;50.948;11.092;2022-08-21T02:22:20;9.23;;;8.43;;
20476;SDS011;10397;50.948;11.092;2022-08-21T02:24:51;8.67;;;7.97;;
20476;SDS011;10397;50.948;11.092;2022-08-21T02:27:23;9.70;;;8.63;;
20476;SDS011;10397;50.948;11.092;2022-08-21T02:29:54;8.13;;;7.43;;
20476;SDS011;10397;50.948;11.092;2022-08-21T02:32:23;8.10;;;7.50;;
20476;SDS011;10397;50.948;11.092;2022-08-21T02:34:53;8.60;;;7.90;;
20476;SDS011;10397;50.948;11.092;2022-08-21T02:37:24;8.90;;;8.00;;
20476;SDS011;10397;50.948;11.092;2022-08-21T02:39:55;8.80;;;8.10;;
20476;SDS011;10397;50.948;11.092;2022-08-21T02:42:26;8.70;;;8.00;;
20476;SDS011;10397;50.948;11.092;2022-08-21T02:44:57;8.60;;;7.80;;
20476;SDS011;10397;50.948;11.092;2022-08-21T02:47:28;7.87;;;7.27;;
20476;SDS011;10397;50.948;11.092;2022-08-21T02:49:59;8.80;;;8.00;;
20476;SDS011;10397;50.948;11.092;2022-08-21T02:52:30;9.37;;;8.37;;
20476;SDS011;10397;50.948;11.092;2022-08-21T02:55:00;8.83;;;8.10;;
20476;SDS011;10397;50.948;11.092;2022-08-21T02:57:31;8.80;;;8.20;;
20476;SDS011;10397;50.948;11.092;2022-08-21T03:00:03;8.30;;;7.70;;
20476;SDS011;10397;50.948;11.092;2022-08-21T03:02:33;9.90;;;8.30;;
20476;SDS011;10397;50.948;11.092;2022-08-21T03:05:04;9.20;;;8.30;;
20476;SDS011;10397;50.948;11.092;2022-08-21T03:07:35;8.27;;;7.57;;
20476;SDS011;10397;50.948;11.092;2022-08-21T03:10:05;8.17;;;7.57;;
20476;SDS011;10397;50.948;11.092;2022-08-21T03:12:36;8.40;;;7.70;;
20476;SDS011;10397;50.948;11.092;2022-08-21T03:15:07;8.63;;;7.97;;
20476;SDS011;10397;50.948;11.092;2022-08-21T03:17:37;8.90;;;8.20;;
20476;SDS011;10397;50.948;11.092;2022-08-21T03:20:09;8.23;;;7.63;;
20476;SDS011;10397;50.948;11.092;2022-08-21T03:22:39;10.37;;;7.77;;
20476;SDS011;10397;50.948;11.092;2022-08-21T03:25:09;9.57;;;8.00;;
20476;SDS011;10397;50.948;11.092;2022-08-21T03:27:40;9.43;;;8.73;;
20476;SDS011;10397;50.948;11.092;2022-08-21T03:30:12;8.07;;;7.47;;
20476;SDS011;10397;50.948;11.092;2022-08-21T03:32:42;7.77;;;7.17;;
20476;SDS011;10397;50.948;11.092;2022-08-21T03:35:13;9.27;;;8.37;;
20476;SDS011;10397;50.948;11.092;2022-08-21T03:37:44;7.80;;;7.10;;
20476;SDS011;10397;50.948;11.092;2022-08-21T03:40:15;8.60;;;7.90;;
20476;SDS011;10397;50.948;11.092;2022-08-21T03:42:44;8.97;;;8.13;;
20476;SDS011;10397;50.948;11.092;2022-08-21T03:45:15;8.33;;;7.63;;
20476;SDS011;10397;50.948;11.092;2022-08-21T03:47:58;9.17;;;8.50;;
20476;SDS011;10397;50.948;11.092;2022-08-21T03:50:29;8.77;;;8.07;;
20476;SDS011;10397;50.948;11.092;2022-08-21T03:52:58;8.20;;;7.50;;
20476;SDS011;10397;50.948;11.092;2022-08-21T03:55:29;8.03;;;7.43;;
20476;SDS011;10397;50.948;11.092;2022-08-21T03:58:00;7.80;;;7.20;;
20476;SDS011;10397;50.948;11.092;2022-08-21T04:00:31;8.33;;;7.57;;
20476;SDS011;10397;50.948;11.092;2022-08-21T04:03:01;8.17;;;6.87;;
20476;SDS011;10397;50.948;11.092;2022-08-21T04:05:32;8.10;;;7.40;;
20476;SDS011;10397;50.948;11.092;2022-08-21T04:08:04;7.50;;;6.90;;
20476;SDS011;10397;50.948;11.092;2022-08-21T04:10:34;7.97;;;7.37;;
20476;SDS011;10397;50.948;11.092;2022-08-21T04:13:04;7.47;;;6.87;;
20476;SDS011;10397;50.948;11.092;2022-08-21T04:15:34;6.73;;;6.13;;
20476;SDS011;10397;50.948;11.092;2022-08-21T04:18:05;7.87;;;7.27;;
20476;SDS011;10397;50.948;11.092;2022-08-21T04:20:35;8.37;;;7.67;;
20476;SDS011;10397;50.948;11.092;2022-08-21T04:23:06;7.53;;;6.93;;
20476;SDS011;10397;50.948;11.092;2022-08-21T04:25:37;7.60;;;7.00;;
20476;SDS011;10397;50.948;11.092;2022-08-21T04:28:08;7.43;;;6.83;;
20476;SDS011;10397;50.948;11.092;2022-08-21T04:30:38;7.07;;;6.57;;
20476;SDS011;10397;50.948;11.092;2022-08-21T04:33:09;6.90;;;6.30;;
20476;SDS011;10397;50.948;11.092;2022-08-21T04:35:40;7.87;;;7.17;;
20476;SDS011;10397;50.948;11.092;2022-08-21T04:38:11;6.97;;;6.47;;
20476;SDS011;10397;50.948;11.092;2022-08-21T04:40:42;6.77;;;5.90;;
20476;SDS011;10397;50.948;11.092;2022-08-21T04:43:13;6.83;;;6.23;;
20476;SDS011;10397;50.948;11.092;2022-08-21T04:45:45;6.43;;;5.93;;
20476;SDS011;10397;50.948;11.092;2022-08-21T04:48:15;5.87;;;5.37;;
20476;SDS011;10397;50.948;11.092;2022-08-21T04:50:51;6.27;;;5.77;;
20476;SDS011;10397;50.948;11.092;2022-08-21T04:53:18;6.43;;;5.83;;
20476;SDS011;10397;50.948;11.092;2022-08-21T04:55:52;6.83;;;6.23;;
20476;SDS011;10397;50.948;11.092;2022-08-21T04:58:22;7.23;;;6.73;;
20476;SDS011;10397;50.948;11.092;2022-08-21T05:00:53;7.50;;;6.80;;
20476;SDS011;10397;50.948;11.092;2022-08-21T05:03:23;6.03;;;5.53;;
20476;SDS011;10397;50.948;11.092;2022-08-21T05:05:54;5.73;;;5.13;;
20476;SDS011;10397;50.948;11.092;2022-08-21T05:08:25;7.60;;;6.13;;
20476;SDS011;10397;50.948;11.092;2022-08-21T05:10:56;7.23;;;6.70;;
20476;SDS011;10397;50.948;11.092;2022-08-21T05:13:27;7.67;;;7.07;;
20476;SDS011;10397;50.948;11.092;2022-08-21T05:15:57;7.70;;;7.10;;
20476;SDS011;10397;50.948;11.092;2022-08-21T05:18:28;8.37;;;7.53;;
20476;SDS011;10397;50.948;11.092;2022-08-21T05:20:59;7.47;;;6.77;;
20476;SDS011;10397;50.948;11.092;2022-08-21T05:23:30;6.83;;;6.30;;
20476;SDS011;10397;50.948;11.092;2022-08-21T05:26:01;7.30;;;6.70;;
20476;SDS011;10397;50.948;11.092;2022-08-21T05:28:31;8.73;;;8.13;;
20476;SDS011;10397;50.948;11.092;2022-08-21T05:31:02;8.33;;;7.53;;
20476;SDS011;10397;50.948;11.092;2022-08-21T05:33:32;6.83;;;6.33;;
20476;SDS011;10397;50.948;11.092;2022-08-21T05:36:03;7.60;;;7.00;;
20476;SDS011;10397;50.948;11.092;2022-08-21T05:38:34;8.13;;;7.43;;
20476;SDS011;10397;50.948;11.092;2022-08-21T05:41:05;8.03;;;7.33;;
20476;SDS011;10397;50.948;11.092;2022-08-21T05:43:35;6.93;;;6.43;;
20476;SDS011;10397;50.948;11.092;2022-08-21T05:46:06;8.23;;;7.07;;
20476;SDS011;10397;50.948;11.092;2022-08-21T05:48:36;6.50;;;6.00;;
20476;SDS011;10397;50.948;11.092;2022-08-21T05:51:09;7.43;;;6.77;;
20476;SDS011;10397;50.948;11.092;2022-08-21T05:53:38;6.17;;;5.70;;
20476;SDS011;10397;50.948;11.092;2022-08-21T05:56:09;7.30;;;6.73;;
20476;SDS011;10397;50.948;11.092;2022-08-21T05:58:39;8.80;;;8.17;;
20476;SDS011;10397;50.948;11.092;2022-08-21T06:01:09;9.53;;;7.00;;
20476;SDS011;10397;50.948;11.092;2022-08-21T06:03:40;10.23;;;7.23;;
20476;SDS011;10397;50.948;11.092;2022-08-21T06:06:10;7.17;;;6.60;;
20476;SDS011;10397;50.948;11.092;2022-08-21T06:08:41;8.20;;;7.60;;
20476;SDS011;10397;50.948;11.092;2022-08-21T06:11:12;9.50;;;8.63;;
20476;SDS011;10397;50.948;11.092;2022-08-21T06:13:43;8.20;;;7.50;;
20476;SDS011;10397;50.948;11.092;2022-08-21T06:16:14;9.37;;;8.57;;
20476;SDS011;10397;50.948;11.092;2022-08-21T06:18:44;8.57;;;7.93;;
20476;SDS011;10397;50.948;11.092;2022-08-21T06:21:15;8.87;;;7.83;;
20476;SDS011;10397;50.948;11.092;2022-08-21T06:23:45;8.57;;;7.90;;
20476;SDS011;10397;50.948;11.092;2022-08-21T06:26:16;8.90;;;8.20;;
20476;SDS011;10397;50.948;11.092;2022-08-21T06:28:47;7.77;;;7.10;;
20476;SDS011;10397;50.948;11.092;2022-08-21T06:31:20;14.40;;;7.83;;
20476;SDS011;10397;50.948;11.092;2022-08-21T06:33:49;7.93;;;7.13;;
20476;SDS011;10397;50.948;11.092;2022-08-21T06:36:19;8.03;;;7.33;;
20476;SDS011;10397;50.948;11.092;2022-08-21T06:38:50;8.60;;;8.00;;
20476;SDS011;10397;50.948;11.092;2022-08-21T06:41:21;8.73;;;8.03;;
20476;SDS011;10397;50.948;11.092;2022-08-21T06:43:53;8.70;;;8.00;;
20476;SDS011;10397;50.948;11.092;2022-08-21T06:46:23;8.77;;;7.97;;
20476;SDS011;10397;50.948;11.092;2022-08-21T06:48:53;7.70;;;7.10;;
20476;SDS011;10397;50.948;11.092;2022-08-21T06:51:24;8.20;;;7.50;;
20476;SDS011;10397;50.948;11.092;2022-08-21T06:53:54;8.63;;;8.03;;
20476;SDS011;10397;50.948;11.092;2022-08-21T06:56:25;8.10;;;7.50;;
20476;SDS011;10397;50.948;11.092;2022-08-21T06:58:56;9.23;;;8.47;;
20476;SDS011;10397;50.948;11.092;2022-08-21T07:01:27;9.77;;;8.90;;
20476;SDS011;10397;50.948;11.092;2022-08-21T07:03:58;10.37;;;9.47;;
20476;SDS011;10397;50.948;11.092;2022-08-21T07:06:28;10.90;;;10.10;;
20476;SDS011;10397;50.948;11.092;2022-08-21T07:09:00;13.47;;;12.30;;
20476;SDS011;10397;50.948;11.092;2022-08-21T07:11:30;11.90;;;10.97;;
20476;SDS011;10397;50.948;11.092;2022-08-21T07:14:01;10.43;;;9.53;;
20476;SDS011;10397;50.948;11.092;2022-08-21T07:16:32;10.87;;;9.70;;
20476;SDS011;10397;50.948;11.092;2022-08-21T07:19:03;9.87;;;9.07;;
20476;SDS011;10397;50.948;11.092;2022-08-21T07:21:34;10.33;;;9.40;;
20476;SDS011;10397;50.948;11.092;2022-08-21T07:24:05;8.63;;;8.03;;
20476;SDS011;10397;50.948;11.092;2022-08-21T07:26:36;9.03;;;8.33;;
20476;SDS011;10397;50.948;11.092;2022-08-21T07:29:06;10.23;;;9.23;;
20476;SDS011;10397;50.948;11.092;2022-08-21T07:31:37;8.40;;;7.57;;
20476;SDS011;10397;50.948;11.092;2022-08-21T07:34:08;10.33;;;9.43;;
20476;SDS011;10397;50.948;11.092;2022-08-21T07:36:39;11.33;;;10.40;;
20476;SDS011;10397;50.948;11.092;2022-08-21T07:39:10;11.33;;;9.43;;
20476;SDS011;10397;50.948;11.092;2022-08-21T07:41:40;9.73;;;8.80;;
20476;SDS011;10397;50.948;11.092;2022-08-21T07:44:11;9.27;;;8.57;;
20476;SDS011;10397;50.948;11.092;2022-08-21T07:46:42;10.43;;;9.43;;
20476;SDS011;10397;50.948;11.092;2022-08-21T07:49:13;9.97;;;9.27;;
20476;SDS011;10397;50.948;11.092;2022-08-21T07:51:44;10.37;;;9.57;;
20476;SDS011;10397;50.948;11.092;2022-08-21T07:54:15;9.60;;;8.67;;
20476;SDS011;10397;50.948;11.092;2022-08-21T07:56:46;9.07;;;8.13;;
20476;SDS011;10397;50.948;11.092;2022-08-21T07:59:17;9.33;;;8.43;;
20476;SDS011;10397;50.948;11.092;2022-08-21T08:01:48;9.00;;;8.10;;
20476;SDS011;10397;50.948;11.092;2022-08-21T08:04:19;9.20;;;8.50;;
20476;SDS011;10397;50.948;11.092;2022-08-21T08:06:50;8.57;;;7.70;;
20476;SDS011;10397;50.948;11.092;2022-08-21T08:09:21;8.50;;;7.90;;
20476;SDS011;10397;50.948;11.092;2022-08-21T08:11:53;7.58;;;6.97;;
20476;SDS011;10397;50.948;11.092;2022-08-21T08:14:24;8.48;;;7.78;;
20476;SDS011;10397;50.948;11.092;2022-08-21T08:16:55;8.57;;;7.83;;
20476;SDS011;10397;50.948;11.092;2022-08-21T08:19:26;7.58;;;6.80;;
20476;SDS011;10397;50.948;11.092;2022-08-21T08:21:57;7.00;;;6.45;;
20476;SDS011;10397;50.948;11.092;2022-08-21T08:24:29;7.45;;;6.53;;
20476;SDS011;10397;50.948;11.092;2022-08-21T08:27:00;5.95;;;5.25;;
20476;SDS011;10397;50.948;11.092;2022-08-21T08:29:32;6.45;;;5.90;;
20476;SDS011;10397;50.948;11.092;2022-08-21T08:32:04;6.08;;;5.50;;
20476;SDS011;10397;50.948;11.092;2022-08-21T08:34:37;7.87;;;6.67;;
20476;SDS011;10397;50.948;11.092;2022-08-21T08:37:09;8.63;;;8.03;;
20476;SDS011;10397;50.948;11.092;2022-08-21T08:39:40;9.13;;;8.38;;
20476;SDS011;10397;50.948;11.092;2022-08-21T08:42:34;8.68;;;7.78;;
20476;SDS011;10397;50.948;11.092;2022-08-21T08:44:43;10.08;;;8.40;;
20476;SDS011;10397;50.948;11.092;2022-08-21T08:47:14;9.97;;;8.97;;
20476;SDS011;10397;50.948;11.092;2022-08-21T08:49:49;9.28;;;8.58;;
20476;SDS011;10397;50.948;11.092;2022-08-21T08:52:33;10.00;;;9.30;;
20476;SDS011;10397;50.948;11.092;2022-08-21T08:55:07;10.60;;;9.70;;
20476;SDS011;10397;50.948;11.092;2022-08-21T08:57:41;8.70;;;8.00;;
20476;SDS011;10397;50.948;11.092;2022-08-21T09:00:11;8.40;;;7.60;;
20476;SDS011;10397;50.948;11.092;2022-08-21T09:02:42;8.75;;;7.95;;
20476;SDS011;10397;50.948;11.092;2022-08-21T09:05:24;9.03;;;8.03;;
20476;SDS011;10397;50.948;11.092;2022-08-21T09:07:49;7.80;;;7.25;;
20476;SDS011;10397;50.948;11.092;2022-08-21T09:10:38;8.53;;;7.83;;
20476;SDS011;10397;50.948;11.092;2022-08-21T09:13:19;7.23;;;6.53;;
20476;SDS011;10397;50.948;11.092;2022-08-21T09:15:57;8.93;;;6.67;;
20476;SDS011;10397;50.948;11.092;2022-08-21T09:21:18;7.53;;;6.83;;
20476;SDS011;10397;50.948;11.092;2022-08-21T09:24:00;7.67;;;7.07;;
20476;SDS011;10397;50.948;11.092;2022-08-21T09:26:36;7.53;;;6.93;;
20476;SDS011;10397;50.948;11.092;2022-08-21T09:29:02;7.62;;;6.55;;
20476;SDS011;10397;50.948;11.092;2022-08-21T09:31:35;7.53;;;6.80;;
20476;SDS011;10397;50.948;11.092;2022-08-21T09:34:08;7.30;;;6.70;;
20476;SDS011;10397;50.948;11.092;2022-08-21T09:36:39;7.83;;;6.92;;
20476;SDS011;10397;50.948;11.092;2022-08-21T09:39:09;6.30;;;5.80;;
20476;SDS011;10397;50.948;11.092;2022-08-21T09:41:40;14.05;;;6.22;;
20476;SDS011;10397;50.948;11.092;2022-08-21T09:44:11;6.17;;;5.58;;
20476;SDS011;10397;50.948;11.092;2022-08-21T09:46:50;6.15;;;4.25;;
20476;SDS011;10397;50.948;11.092;2022-08-21T09:49:13;4.87;;;4.45;;
20476;SDS011;10397;50.948;11.092;2022-08-21T09:51:49;4.50;;;4.12;;
20476;SDS011;10397;50.948;11.092;2022-08-21T09:54:17;4.90;;;3.47;;
20476;SDS011;10397;50.948;11.092;2022-08-21T09:59:41;3.83;;;3.53;;
20476;SDS011;10397;50.948;11.092;2022-08-21T10:02:28;4.05;;;3.65;;
20476;SDS011;10397;50.948;11.092;2022-08-21T10:05:07;3.93;;;3.63;;
20476;SDS011;10397;50.948;11.092;2022-08-21T10:07:36;6.03;;;5.07;;
20476;SDS011;10397;50.948;11.092;2022-08-21T10:10:07;5.60;;;5.10;;
20476;SDS011;10397;50.948;11.092;2022-08-21T10:15:51;6.00;;;5.47;;
20476;SDS011;10397;50.948;11.092;2022-08-21T10:18:30;6.93;;;5.20;;
20476;SDS011;10397;50.948;11.092;2022-08-21T10:29:17;6.10;;;4.30;;
20476;SDS011;10397;50.948;11.092;2022-08-21T10:31:51;4.03;;;3.72;;
20476;SDS011;10397;50.948;11.092;2022-08-21T10:45:30;3.80;;;3.40;;
20476;SDS011;10397;50.948;11.092;2022-08-21T10:47:57;4.70;;;3.73;;
20476;SDS011;10397;50.948;11.092;2022-08-21T10:50:30;3.55;;;2.98;;
20476;SDS011;10397;50.948;11.092;2022-08-21T10:53:13;4.10;;;3.70;;
20476;SDS011;10397;50.948;11.092;2022-08-21T10:58:26;4.23;;;3.50;;
20476;SDS011;10397;50.948;11.092;2022-08-21T11:00:55;2.50;;;2.10;;
20476;SDS011;10397;50.948;11.092;2022-08-21T11:03:33;2.43;;;2.10;;
20476;SDS011;10397;50.948;11.092;2022-08-21T11:06:08;3.47;;;2.20;;
20476;SDS011;10397;50.948;11.092;2022-08-21T11:08:41;3.15;;;1.98;;
20476;SDS011;10397;50.948;11.092;2022-08-21T11:11:10;5.77;;;2.33;;
20476;SDS011;10397;50.948;11.092;2022-08-21T11:13:48;3.10;;;2.25;;
20476;SDS011;10397;50.948;11.092;2022-08-21T11:16:42;2.73;;;2.47;;
20476;SDS011;10397;50.948;11.092;2022-08-21T11:19:16;3.67;;;2.60;;
20476;SDS011;10397;50.948;11.092;2022-08-21T11:21:48;3.07;;;2.23;;
20476;SDS011;10397;50.948;11.092;2022-08-21T11:27:06;4.73;;;2.60;;
20476;SDS011;10397;50.948;11.092;2022-08-21T11:29:37;7.35;;;2.33;;
20476;SDS011;10397;50.948;11.092;2022-08-21T11:35:25;3.67;;;3.07;;
20476;SDS011;10397;50.948;11.092;2022-08-21T11:45:56;4.70;;;2.90;;
20476;SDS011;10397;50.948;11.092;2022-08-21T11:51:07;3.40;;;2.53;;
20476;SDS011;10397;50.948;11.092;2022-08-21T11:53:38;3.05;;;2.50;;
20476;SDS011;10397;50.948;11.092;2022-08-21T11:56:19;6.63;;;2.50;;
20476;SDS011;10397;50.948;11.092;2022-08-21T11:58:56;2.60;;;2.10;;
20476;SDS011;10397;50.948;11.092;2022-08-21T12:01:27;2.80;;;2.37;;
20476;SDS011;10397;50.948;11.092;2022-08-21T12:04:01;5.10;;;2.20;;
20476;SDS011;10397;50.948;11.092;2022-08-21T12:06:38;4.93;;;2.47;;
20476;SDS011;10397;50.948;11.092;2022-08-21T12:09:05;7.20;;;2.37;;
20476;SDS011;10397;50.948;11.092;2022-08-21T12:11:48;3.20;;;2.37;;
20476;SDS011;10397;50.948;11.092;2022-08-21T12:14:17;2.70;;;1.50;;
20476;SDS011;10397;50.948;11.092;2022-08-21T12:16:48;4.55;;;2.27;;
20476;SDS011;10397;50.948;11.092;2022-08-21T12:24:39;2.70;;;1.83;;
20476;SDS011;10397;50.948;11.092;2022-08-21T12:27:19;4.50;;;1.83;;
20476;SDS011;10397;50.948;11.092;2022-08-21T12:29:51;7.47;;;1.63;;
20476;SDS011;10397;50.948;11.092;2022-08-21T12:32:41;2.83;;;1.52;;
20476;SDS011;10397;50.948;11.092;2022-08-21T12:35:10;2.97;;;1.83;;
20476;SDS011;10397;50.948;11.092;2022-08-21T12:37:38;2.50;;;1.70;;
20476;SDS011;10397;50.948;11.092;2022-08-21T12:40:14;4.23;;;1.40;;
20476;SDS011;10397;50.948;11.092;2022-08-21T12:42:44;3.55;;;2.00;;
20476;SDS011;10397;50.948;11.092;2022-08-21T12:45:20;2.50;;;1.53;;
20476;SDS011;10397;50.948;11.092;2022-08-21T12:47:56;4.17;;;1.77;;
20476;SDS011;10397;50.948;11.092;2022-08-21T12:50:56;3.23;;;1.57;;
20476;SDS011;10397;50.948;11.092;2022-08-21T12:56:08;2.73;;;1.77;;
20476;SDS011;10397;50.948;11.092;2022-08-21T12:59:22;2.83;;;1.50;;
20476;SDS011;10397;50.948;11.092;2022-08-21T13:01:25;4.73;;;1.57;;
20476;SDS011;10397;50.948;11.092;2022-08-21T13:03:55;2.50;;;1.70;;
20476;SDS011;10397;50.948;11.092;2022-08-21T13:06:25;3.42;;;1.62;;
20476;SDS011;10397;50.948;11.092;2022-08-21T13:08:57;5.97;;;1.60;;
20476;SDS011;10397;50.948;11.092;2022-08-21T13:11:28;3.15;;;1.60;;
20476;SDS011;10397;50.948;11.092;2022-08-21T13:14:00;5.22;;;1.77;;
20476;SDS011;10397;50.948;11.092;2022-08-21T13:16:30;2.57;;;1.30;;
20476;SDS011;10397;50.948;11.092;2022-08-21T13:19:02;3.08;;;1.40;;
20476;SDS011;10397;50.948;11.092;2022-08-21T13:21:38;3.13;;;1.33;;
20476;SDS011;10397;50.948;11.092;2022-08-21T13:24:16;5.17;;;1.67;;
20476;SDS011;10397;50.948;11.092;2022-08-21T13:26:50;2.10;;;1.43;;
20476;SDS011;10397;50.948;11.092;2022-08-21T13:29:22;4.47;;;1.52;;
20476;SDS011;10397;50.948;11.092;2022-08-21T13:31:53;3.07;;;1.60;;
20476;SDS011;10397;50.948;11.092;2022-08-21T13:34:24;2.50;;;1.60;;
20476;SDS011;10397;50.948;11.092;2022-08-21T13:36:55;7.20;;;1.60;;
20476;SDS011;10397;50.948;11.092;2022-08-21T13:39:25;2.35;;;1.12;;
20476;SDS011;10397;50.948;11.092;2022-08-21T13:41:57;2.55;;;1.60;;
20476;SDS011;10397;50.948;11.092;2022-08-21T13:44:32;3.02;;;1.50;;
20476;SDS011;10397;50.948;11.092;2022-08-21T13:47:11;3.03;;;1.33;;
20476;SDS011;10397;50.948;11.092;2022-08-21T13:49:45;4.25;;;1.70;;
20476;SDS011;10397;50.948;11.092;2022-08-21T13:52:16;3.10;;;1.23;;
20476;SDS011;10397;50.948;11.092;2022-08-21T13:55:11;2.58;;;1.42;;
20476;SDS011;10397;50.948;11.092;2022-08-21T13:57:29;3.53;;;1.97;;
20476;SDS011;10397;50.948;11.092;2022-08-21T14:00:18;2.60;;;1.37;;
20476;SDS011;10397;50.948;11.092;2022-08-21T14:02:49;2.60;;;1.20;;
20476;SDS011;10397;50.948;11.092;2022-08-21T14:05:20;2.92;;;1.20;;
20476;SDS011;10397;50.948;11.092;2022-08-21T14:07:50;1.95;;;1.10;;
20476;SDS011;10397;50.948;11.092;2022-08-21T14:10:21;2.42;;;1.10;;
20476;SDS011;10397;50.948;11.092;2022-08-21T14:12:52;2.43;;;1.30;;
20476;SDS011;10397;50.948;11.092;2022-08-21T14:15:24;3.47;;;1.07;;
20476;SDS011;10397;50.948;11.092;2022-08-21T14:17:53;3.40;;;1.33;;
20476;SDS011;10397;50.948;11.092;2022-08-21T14:20:26;3.80;;;1.45;;
20476;SDS011;10397;50.948;11.092;2022-08-21T14:22:55;5.70;;;1.17;;
20476;SDS011;10397;50.948;11.092;2022-08-21T14:25:49;2.45;;;1.27;;
20476;SDS011;10397;50.948;11.092;2022-08-21T14:28:22;2.77;;;1.10;;
20476;SDS011;10397;50.948;11.092;2022-08-21T14:30:49;3.43;;;1.40;;
20476;SDS011;10397;50.948;11.092;2022-08-21T14:33:28;3.20;;;1.45;;
20476;SDS011;10397;50.948;11.092;2022-08-21T14:35:57;2.73;;;1.20;;
20476;SDS011;10397;50.948;11.092;2022-08-21T14:38:28;6.62;;;1.50;;
20476;SDS011;10397;50.948;11.092;2022-08-21T14:41:00;2.40;;;1.10;;
20476;SDS011;10397;50.948;11.092;2022-08-21T14:43:30;5.08;;;1.35;;
20476;SDS011;10397;50.948;11.092;2022-08-21T14:46:02;3.20;;;1.30;;
20476;SDS011;10397;50.948;11.092;2022-08-21T14:48:33;3.50;;;1.45;;
20476;SDS011;10397;50.948;11.092;2022-08-21T14:51:05;2.22;;;1.00;;
20476;SDS011;10397;50.948;11.092;2022-08-21T14:53:36;3.22;;;1.25;;
20476;SDS011;10397;50.948;11.092;2022-08-21T14:56:08;2.37;;;1.05;;
20476;SDS011;10397;50.948;11.092;2022-08-21T14:58:40;5.20;;;0.90;;
20476;SDS011;10397;50.948;11.092;2022-08-21T15:01:11;4.05;;;0.93;;
20476;SDS011;10397;50.948;11.092;2022-08-21T15:03:41;2.12;;;1.00;;
20476;SDS011;10397;50.948;11.092;2022-08-21T15:06:12;1.52;;;0.90;;
20476;SDS011;10397;50.948;11.092;2022-08-21T15:08:44;3.60;;;1.22;;
20476;SDS011;10397;50.948;11.092;2022-08-21T15:11:19;2.55;;;1.22;;
20476;SDS011;10397;50.948;11.092;2022-08-21T15:13:53;2.83;;;1.20;;
20476;SDS011;10397;50.948;11.092;2022-08-21T15:16:20;3.25;;;1.35;;
20476;SDS011;10397;50.948;11.092;2022-08-21T15:18:51;4.37;;;1.10;;
20476;SDS011;10397;50.948;11.092;2022-08-21T15:21:23;3.20;;;1.10;;
20476;SDS011;10397;50.948;11.092;2022-08-21T15:23:54;4.42;;;1.22;;
20476;SDS011;10397;50.948;11.092;2022-08-21T15:26:25;2.75;;;1.10;;
20476;SDS011;10397;50.948;11.092;2022-08-21T15:28:56;2.27;;;1.07;;
20476;SDS011;10397;50.948;11.092;2022-08-21T15:31:28;5.00;;;1.17;;
20476;SDS011;10397;50.948;11.092;2022-08-21T15:33:59;2.55;;;1.15;;
20476;SDS011;10397;50.948;11.092;2022-08-21T15:36:31;2.30;;;1.37;;
20476;SDS011;10397;50.948;11.092;2022-08-21T15:39:02;5.92;;;1.40;;
20476;SDS011;10397;50.948;11.092;2022-08-21T15:41:34;3.27;;;1.12;;
20476;SDS011;10397;50.948;11.092;2022-08-21T15:44:06;2.35;;;0.98;;
20476;SDS011;10397;50.948;11.092;2022-08-21T15:46:38;2.37;;;1.10;;
20476;SDS011;10397;50.948;11.092;2022-08-21T15:49:08;4.55;;;1.07;;
20476;SDS011;10397;50.948;11.092;2022-08-21T15:51:40;4.47;;;1.00;;
20476;SDS011;10397;50.948;11.092;2022-08-21T15:54:11;2.62;;;1.12;;
20476;SDS011;10397;50.948;11.092;2022-08-21T15:56:44;2.40;;;1.05;;